Etusivu
METAR-TAF:

METAR-TAF

Lentoasemat :

Ben Gurionin kansainvälinen lentoasema

Tel Aviv / Ben Gurion, Israel

Leveyspiiri: 32-00N, Pituuspiiri: 034-54E, korkeus merenpinnasta: 40 m

Tämänhetkinen sää

Tämä raportti tehtiin 21 minuuttia sitten, kello 22.50 UTC
Tuuli 6 kn idästä/kaakosta
Lämpötila 23°C
Kosteus 47%
Ilmanpaine 1010 hPa
Näkyvyys 10 km tai enemmän
ei pilviä alle 1500 m:ssä eikä cumulonimbus-pilviä

METAR: LLBG 242250Z 12006KT CAVOK 23/11 Q1010 NOSIG

Aika: 02:11 (23:11 UTC)

Sääennuste

Tämä raportti tehtiin 6 tuntia ja 2 minuuttia sitten, kello 17.09 UTC
Ennuste voimassa 24. päivästä klo 18 UTC - 25. päivään klo 18 UTC
Tuuli 4 kn eri suunnista
Näkyvyys 10 km tai enemmän
ei pilviä alle 1500 m:ssä eikä cumulonimbus-pilviä
Tulossa
25. päivästä klo 07 UTC - 25. päivään klo 09 UTC
Tuuli 10 kn lännestä

TAF: LLBG 241709Z 2418/2518 VRB04KT CAVOK BECMG 2507/2509 28010KT TX33/2512Z TN21/2503Z

Säähavainnot ja -ennusteet yli 4000 lentoasemalta (METAR- ja TAF-raportit).

Käytössä olevat sääasemat on merkitty karttaan keltaisilla ja punaisilla pisteillä.

Aseta hiiri pisteen päälle nähdäksesi sääaseman nimen.

Klikkaa sitten nähdäksesi säähavainnot ja -ennusteet.

Kartan vaihtaminen: klikkaa mustalla rastilla varustettuja vihreitä pisteitä, niin voit zoomata sisään; viivalla varustettua vihreää pistettä, niin voit zoomata ulos tai vihreitä nuolia, niin pääset viereisille kartoille.


METAR-TAF: